sensor_id;sensor_type;location;lat;lon;timestamp;P1;durP1;ratioP1;P2;durP2;ratioP2
3922;SDS011;1976;51.694;6.256;2023-05-10T00:01:33;0.60;;;0.60;;
3922;SDS011;1976;51.694;6.256;2023-05-10T00:03:59;0.60;;;0.60;;
3922;SDS011;1976;51.694;6.256;2023-05-10T00:06:25;0.60;;;0.60;;
3922;SDS011;1976;51.694;6.256;2023-05-10T00:08:50;0.60;;;0.60;;
3922;SDS011;1976;51.694;6.256;2023-05-10T00:11:16;2.30;;;0.97;;
3922;SDS011;1976;51.694;6.256;2023-05-10T00:13:42;0.70;;;0.70;;
3922;SDS011;1976;51.694;6.256;2023-05-10T00:16:07;0.60;;;0.60;;
3922;SDS011;1976;51.694;6.256;2023-05-10T00:18:33;0.60;;;0.60;;
3922;SDS011;1976;51.694;6.256;2023-05-10T00:20:59;0.70;;;0.70;;
3922;SDS011;1976;51.694;6.256;2023-05-10T00:23:24;0.60;;;0.60;;
3922;SDS011;1976;51.694;6.256;2023-05-10T00:25:50;0.60;;;0.60;;
3922;SDS011;1976;51.694;6.256;2023-05-10T00:28:16;0.60;;;0.60;;
3922;SDS011;1976;51.694;6.256;2023-05-10T00:30:41;0.60;;;0.60;;
3922;SDS011;1976;51.694;6.256;2023-05-10T00:33:07;0.80;;;0.80;;
3922;SDS011;1976;51.694;6.256;2023-05-10T00:35:33;0.60;;;0.60;;
3922;SDS011;1976;51.694;6.256;2023-05-10T00:37:58;1.30;;;1.20;;
3922;SDS011;1976;51.694;6.256;2023-05-10T00:40:24;0.60;;;0.60;;
3922;SDS011;1976;51.694;6.256;2023-05-10T00:42:50;0.60;;;0.60;;
3922;SDS011;1976;51.694;6.256;2023-05-10T00:45:15;0.60;;;0.60;;
3922;SDS011;1976;51.694;6.256;2023-05-10T00:47:41;0.60;;;0.60;;
3922;SDS011;1976;51.694;6.256;2023-05-10T00:50:07;0.60;;;0.60;;
3922;SDS011;1976;51.694;6.256;2023-05-10T00:52:34;0.70;;;0.70;;
3922;SDS011;1976;51.694;6.256;2023-05-10T00:54:59;0.60;;;0.60;;
3922;SDS011;1976;51.694;6.256;2023-05-10T00:57:26;0.67;;;0.67;;
3922;SDS011;1976;51.694;6.256;2023-05-10T00:59:52;0.60;;;0.60;;
3922;SDS011;1976;51.694;6.256;2023-05-10T01:02:18;0.60;;;0.60;;
3922;SDS011;1976;51.694;6.256;2023-05-10T01:04:44;1.00;;;1.00;;
3922;SDS011;1976;51.694;6.256;2023-05-10T01:07:09;0.60;;;0.60;;
3922;SDS011;1976;51.694;6.256;2023-05-10T01:09:35;0.77;;;0.77;;
3922;SDS011;1976;51.694;6.256;2023-05-10T01:12:01;0.60;;;0.60;;
3922;SDS011;1976;51.694;6.256;2023-05-10T01:14:27;0.60;;;0.60;;
3922;SDS011;1976;51.694;6.256;2023-05-10T01:16:54;0.60;;;0.60;;
3922;SDS011;1976;51.694;6.256;2023-05-10T01:19:22;0.60;;;0.60;;
3922;SDS011;1976;51.694;6.256;2023-05-10T01:22:01;0.60;;;0.60;;
3922;SDS011;1976;51.694;6.256;2023-05-10T01:47:31;0.60;;;0.60;;
3922;SDS011;1976;51.694;6.256;2023-05-10T01:50:06;0.60;;;0.60;;
3922;SDS011;1976;51.694;6.256;2023-05-10T01:52:41;1.37;;;1.27;;
3922;SDS011;1976;51.694;6.256;2023-05-10T01:55:09;0.60;;;0.60;;
3922;SDS011;1976;51.694;6.256;2023-05-10T01:57:39;0.60;;;0.60;;
3922;SDS011;1976;51.694;6.256;2023-05-10T02:00:08;0.60;;;0.60;;
3922;SDS011;1976;51.694;6.256;2023-05-10T02:02:36;0.60;;;0.60;;
3922;SDS011;1976;51.694;6.256;2023-05-10T02:05:04;0.60;;;0.60;;
3922;SDS011;1976;51.694;6.256;2023-05-10T02:07:31;0.60;;;0.60;;
3922;SDS011;1976;51.694;6.256;2023-05-10T02:10:00;0.90;;;0.90;;
3922;SDS011;1976;51.694;6.256;2023-05-10T02:12:29;0.60;;;0.60;;
3922;SDS011;1976;51.694;6.256;2023-05-10T02:14:56;0.60;;;0.60;;
3922;SDS011;1976;51.694;6.256;2023-05-10T02:17:24;0.60;;;0.60;;
3922;SDS011;1976;51.694;6.256;2023-05-10T02:19:50;0.60;;;0.60;;
3922;SDS011;1976;51.694;6.256;2023-05-10T02:22:18;0.70;;;0.70;;
3922;SDS011;1976;51.694;6.256;2023-05-10T02:24:44;1.93;;;1.83;;
3922;SDS011;1976;51.694;6.256;2023-05-10T02:27:11;0.60;;;0.60;;
3922;SDS011;1976;51.694;6.256;2023-05-10T02:29:39;0.60;;;0.60;;
3922;SDS011;1976;51.694;6.256;2023-05-10T02:32:05;1.43;;;1.00;;
3922;SDS011;1976;51.694;6.256;2023-05-10T02:34:33;0.60;;;0.60;;
3922;SDS011;1976;51.694;6.256;2023-05-10T02:36:59;0.70;;;0.70;;
3922;SDS011;1976;51.694;6.256;2023-05-10T02:39:27;0.60;;;0.60;;
3922;SDS011;1976;51.694;6.256;2023-05-10T02:41:54;0.60;;;0.60;;
3922;SDS011;1976;51.694;6.256;2023-05-10T02:44:21;0.60;;;0.60;;
3922;SDS011;1976;51.694;6.256;2023-05-10T02:46:48;0.60;;;0.60;;
3922;SDS011;1976;51.694;6.256;2023-05-10T02:49:14;0.60;;;0.60;;
3922;SDS011;1976;51.694;6.256;2023-05-10T02:51:41;0.60;;;0.60;;
3922;SDS011;1976;51.694;6.256;2023-05-10T02:54:15;0.60;;;0.60;;
3922;SDS011;1976;51.694;6.256;2023-05-10T02:56:47;0.60;;;0.60;;
3922;SDS011;1976;51.694;6.256;2023-05-10T02:59:15;0.63;;;0.63;;
3922;SDS011;1976;51.694;6.256;2023-05-10T03:01:41;0.60;;;0.60;;
3922;SDS011;1976;51.694;6.256;2023-05-10T03:04:07;1.67;;;1.20;;
3922;SDS011;1976;51.694;6.256;2023-05-10T03:06:32;0.80;;;0.80;;
3922;SDS011;1976;51.694;6.256;2023-05-10T03:08:58;0.60;;;0.60;;
3922;SDS011;1976;51.694;6.256;2023-05-10T03:16:52;0.60;;;0.60;;
3922;SDS011;1976;51.694;6.256;2023-05-10T03:22:17;0.60;;;0.60;;
3922;SDS011;1976;51.694;6.256;2023-05-10T03:24:56;1.10;;;1.00;;
3922;SDS011;1976;51.694;6.256;2023-05-10T03:27:23;0.70;;;0.70;;
3922;SDS011;1976;51.694;6.256;2023-05-10T03:29:50;0.80;;;0.80;;
3922;SDS011;1976;51.694;6.256;2023-05-10T03:32:17;0.70;;;0.70;;
3922;SDS011;1976;51.694;6.256;2023-05-10T03:34:43;0.60;;;0.60;;
3922;SDS011;1976;51.694;6.256;2023-05-10T03:37:09;0.60;;;0.60;;
3922;SDS011;1976;51.694;6.256;2023-05-10T03:39:35;0.60;;;0.60;;
3922;SDS011;1976;51.694;6.256;2023-05-10T03:42:00;0.60;;;0.60;;
3922;SDS011;1976;51.694;6.256;2023-05-10T03:44:26;0.70;;;0.70;;
3922;SDS011;1976;51.694;6.256;2023-05-10T03:46:52;0.60;;;0.60;;
3922;SDS011;1976;51.694;6.256;2023-05-10T03:49:18;0.60;;;0.60;;
3922;SDS011;1976;51.694;6.256;2023-05-10T03:51:43;0.70;;;0.70;;
3922;SDS011;1976;51.694;6.256;2023-05-10T03:54:09;0.60;;;0.60;;
3922;SDS011;1976;51.694;6.256;2023-05-10T03:56:34;0.60;;;0.60;;
3922;SDS011;1976;51.694;6.256;2023-05-10T03:59:00;0.60;;;0.60;;
3922;SDS011;1976;51.694;6.256;2023-05-10T04:01:26;0.60;;;0.60;;
3922;SDS011;1976;51.694;6.256;2023-05-10T04:03:52;0.70;;;0.70;;
3922;SDS011;1976;51.694;6.256;2023-05-10T04:06:17;0.80;;;0.80;;
3922;SDS011;1976;51.694;6.256;2023-05-10T04:08:43;0.60;;;0.60;;
3922;SDS011;1976;51.694;6.256;2023-05-10T04:11:10;0.70;;;0.70;;
3922;SDS011;1976;51.694;6.256;2023-05-10T04:13:36;0.60;;;0.60;;
3922;SDS011;1976;51.694;6.256;2023-05-10T04:16:03;0.70;;;0.70;;
3922;SDS011;1976;51.694;6.256;2023-05-10T04:18:29;0.70;;;0.70;;
3922;SDS011;1976;51.694;6.256;2023-05-10T04:20:55;0.60;;;0.60;;
3922;SDS011;1976;51.694;6.256;2023-05-10T04:23:20;0.60;;;0.60;;
3922;SDS011;1976;51.694;6.256;2023-05-10T04:25:46;0.60;;;0.60;;
3922;SDS011;1976;51.694;6.256;2023-05-10T04:28:12;0.60;;;0.60;;
3922;SDS011;1976;51.694;6.256;2023-05-10T04:30:38;0.60;;;0.60;;
3922;SDS011;1976;51.694;6.256;2023-05-10T04:33:05;1.03;;;1.03;;
3922;SDS011;1976;51.694;6.256;2023-05-10T04:35:30;0.60;;;0.60;;
3922;SDS011;1976;51.694;6.256;2023-05-10T04:37:56;0.60;;;0.60;;
3922;SDS011;1976;51.694;6.256;2023-05-10T04:40:21;0.70;;;0.70;;
3922;SDS011;1976;51.694;6.256;2023-05-10T04:42:47;0.60;;;0.60;;
3922;SDS011;1976;51.694;6.256;2023-05-10T04:45:13;0.60;;;0.60;;
3922;SDS011;1976;51.694;6.256;2023-05-10T04:47:42;6.73;;;1.40;;
3922;SDS011;1976;51.694;6.256;2023-05-10T04:50:08;0.60;;;0.60;;
3922;SDS011;1976;51.694;6.256;2023-05-10T04:52:33;0.60;;;0.60;;
3922;SDS011;1976;51.694;6.256;2023-05-10T04:54:59;0.57;;;0.57;;
3922;SDS011;1976;51.694;6.256;2023-05-10T04:57:25;0.60;;;0.60;;
3922;SDS011;1976;51.694;6.256;2023-05-10T04:59:51;0.80;;;0.80;;
3922;SDS011;1976;51.694;6.256;2023-05-10T05:02:17;0.70;;;0.70;;
3922;SDS011;1976;51.694;6.256;2023-05-10T05:04:42;0.60;;;0.60;;
3922;SDS011;1976;51.694;6.256;2023-05-10T05:07:08;0.77;;;0.77;;
3922;SDS011;1976;51.694;6.256;2023-05-10T05:09:33;0.60;;;0.60;;
3922;SDS011;1976;51.694;6.256;2023-05-10T05:11:59;0.60;;;0.60;;
3922;SDS011;1976;51.694;6.256;2023-05-10T05:14:25;1.23;;;1.13;;
3922;SDS011;1976;51.694;6.256;2023-05-10T05:16:53;0.70;;;0.70;;
3922;SDS011;1976;51.694;6.256;2023-05-10T05:19:19;0.60;;;0.60;;
3922;SDS011;1976;51.694;6.256;2023-05-10T05:21:44;0.60;;;0.60;;
3922;SDS011;1976;51.694;6.256;2023-05-10T05:24:10;0.60;;;0.60;;
3922;SDS011;1976;51.694;6.256;2023-05-10T05:26:37;0.60;;;0.60;;
3922;SDS011;1976;51.694;6.256;2023-05-10T05:29:03;0.60;;;0.60;;
3922;SDS011;1976;51.694;6.256;2023-05-10T05:31:29;0.60;;;0.60;;
3922;SDS011;1976;51.694;6.256;2023-05-10T05:33:55;0.73;;;0.73;;
3922;SDS011;1976;51.694;6.256;2023-05-10T05:36:21;0.60;;;0.60;;
3922;SDS011;1976;51.694;6.256;2023-05-10T05:38:46;0.60;;;0.60;;
3922;SDS011;1976;51.694;6.256;2023-05-10T05:41:12;0.60;;;0.60;;
3922;SDS011;1976;51.694;6.256;2023-05-10T05:43:38;0.70;;;0.70;;
3922;SDS011;1976;51.694;6.256;2023-05-10T05:46:04;0.60;;;0.60;;
3922;SDS011;1976;51.694;6.256;2023-05-10T05:48:30;0.60;;;0.60;;
3922;SDS011;1976;51.694;6.256;2023-05-10T05:50:56;1.83;;;1.73;;
3922;SDS011;1976;51.694;6.256;2023-05-10T05:53:22;0.60;;;0.60;;
3922;SDS011;1976;51.694;6.256;2023-05-10T05:55:52;0.60;;;0.60;;
3922;SDS011;1976;51.694;6.256;2023-05-10T05:58:19;0.60;;;0.60;;
3922;SDS011;1976;51.694;6.256;2023-05-10T06:00:45;0.93;;;0.93;;
3922;SDS011;1976;51.694;6.256;2023-05-10T06:03:10;0.60;;;0.60;;
3922;SDS011;1976;51.694;6.256;2023-05-10T06:05:36;0.60;;;0.60;;
3922;SDS011;1976;51.694;6.256;2023-05-10T06:08:02;0.60;;;0.60;;
3922;SDS011;1976;51.694;6.256;2023-05-10T06:10:27;0.63;;;0.60;;
3922;SDS011;1976;51.694;6.256;2023-05-10T06:12:53;0.60;;;0.60;;
3922;SDS011;1976;51.694;6.256;2023-05-10T06:15:19;1.37;;;1.17;;
3922;SDS011;1976;51.694;6.256;2023-05-10T06:17:44;0.60;;;0.60;;
3922;SDS011;1976;51.694;6.256;2023-05-10T06:20:12;0.60;;;0.60;;
3922;SDS011;1976;51.694;6.256;2023-05-10T06:22:38;1.10;;;1.00;;
3922;SDS011;1976;51.694;6.256;2023-05-10T06:25:03;0.60;;;0.60;;
3922;SDS011;1976;51.694;6.256;2023-05-10T06:27:29;1.53;;;1.43;;
3922;SDS011;1976;51.694;6.256;2023-05-10T06:29:55;0.73;;;0.73;;
3922;SDS011;1976;51.694;6.256;2023-05-10T06:32:20;0.70;;;0.70;;
3922;SDS011;1976;51.694;6.256;2023-05-10T06:34:46;0.70;;;0.70;;
3922;SDS011;1976;51.694;6.256;2023-05-10T06:37:12;0.60;;;0.60;;
3922;SDS011;1976;51.694;6.256;2023-05-10T06:39:38;1.37;;;1.23;;
3922;SDS011;1976;51.694;6.256;2023-05-10T06:42:03;1.23;;;1.00;;
3922;SDS011;1976;51.694;6.256;2023-05-10T06:44:29;0.60;;;0.60;;
3922;SDS011;1976;51.694;6.256;2023-05-10T06:46:55;0.70;;;0.70;;
3922;SDS011;1976;51.694;6.256;2023-05-10T06:49:21;0.60;;;0.60;;
3922;SDS011;1976;51.694;6.256;2023-05-10T06:51:47;0.70;;;0.70;;
3922;SDS011;1976;51.694;6.256;2023-05-10T06:54:13;0.60;;;0.60;;
3922;SDS011;1976;51.694;6.256;2023-05-10T06:56:39;0.60;;;0.60;;
3922;SDS011;1976;51.694;6.256;2023-05-10T06:59:04;0.60;;;0.60;;
3922;SDS011;1976;51.694;6.256;2023-05-10T07:01:30;1.33;;;0.80;;
3922;SDS011;1976;51.694;6.256;2023-05-10T07:03:55;0.60;;;0.60;;
3922;SDS011;1976;51.694;6.256;2023-05-10T07:06:21;0.60;;;0.60;;
3922;SDS011;1976;51.694;6.256;2023-05-10T07:08:47;0.60;;;0.60;;
3922;SDS011;1976;51.694;6.256;2023-05-10T07:11:12;4.83;;;1.70;;
3922;SDS011;1976;51.694;6.256;2023-05-10T07:13:38;0.60;;;0.60;;
3922;SDS011;1976;51.694;6.256;2023-05-10T07:16:06;0.60;;;0.60;;
3922;SDS011;1976;51.694;6.256;2023-05-10T07:18:32;0.60;;;0.60;;
3922;SDS011;1976;51.694;6.256;2023-05-10T07:20:58;0.60;;;0.60;;
3922;SDS011;1976;51.694;6.256;2023-05-10T07:23:24;0.60;;;0.60;;
3922;SDS011;1976;51.694;6.256;2023-05-10T07:25:50;0.70;;;0.70;;
3922;SDS011;1976;51.694;6.256;2023-05-10T07:28:19;1.13;;;1.10;;
3922;SDS011;1976;51.694;6.256;2023-05-10T07:30:45;0.80;;;0.80;;
3922;SDS011;1976;51.694;6.256;2023-05-10T07:33:11;0.60;;;0.60;;
3922;SDS011;1976;51.694;6.256;2023-05-10T07:35:38;0.80;;;0.80;;
3922;SDS011;1976;51.694;6.256;2023-05-10T07:38:04;0.60;;;0.60;;
3922;SDS011;1976;51.694;6.256;2023-05-10T07:40:29;0.60;;;0.60;;
3922;SDS011;1976;51.694;6.256;2023-05-10T07:42:55;0.60;;;0.60;;
3922;SDS011;1976;51.694;6.256;2023-05-10T07:45:21;0.60;;;0.60;;
3922;SDS011;1976;51.694;6.256;2023-05-10T07:47:48;0.70;;;0.70;;
3922;SDS011;1976;51.694;6.256;2023-05-10T07:50:13;0.70;;;0.70;;
3922;SDS011;1976;51.694;6.256;2023-05-10T07:52:39;0.60;;;0.60;;
3922;SDS011;1976;51.694;6.256;2023-05-10T07:55:05;0.60;;;0.60;;
3922;SDS011;1976;51.694;6.256;2023-05-10T07:57:32;0.60;;;0.60;;
3922;SDS011;1976;51.694;6.256;2023-05-10T07:59:58;1.23;;;1.13;;
3922;SDS011;1976;51.694;6.256;2023-05-10T08:02:24;1.00;;;0.90;;
3922;SDS011;1976;51.694;6.256;2023-05-10T08:04:50;0.80;;;0.80;;
3922;SDS011;1976;51.694;6.256;2023-05-10T08:07:16;0.63;;;0.63;;
3922;SDS011;1976;51.694;6.256;2023-05-10T08:09:42;0.60;;;0.60;;
3922;SDS011;1976;51.694;6.256;2023-05-10T08:12:08;1.43;;;1.33;;
3922;SDS011;1976;51.694;6.256;2023-05-10T08:14:34;0.60;;;0.60;;
3922;SDS011;1976;51.694;6.256;2023-05-10T08:17:01;0.60;;;0.60;;
3922;SDS011;1976;51.694;6.256;2023-05-10T08:19:28;0.60;;;0.60;;
3922;SDS011;1976;51.694;6.256;2023-05-10T08:21:53;0.83;;;0.80;;
3922;SDS011;1976;51.694;6.256;2023-05-10T08:24:20;0.60;;;0.60;;
3922;SDS011;1976;51.694;6.256;2023-05-10T08:26:46;0.60;;;0.60;;
3922;SDS011;1976;51.694;6.256;2023-05-10T08:29:12;0.60;;;0.60;;
3922;SDS011;1976;51.694;6.256;2023-05-10T08:31:38;0.60;;;0.60;;
3922;SDS011;1976;51.694;6.256;2023-05-10T08:34:04;0.60;;;0.60;;
3922;SDS011;1976;51.694;6.256;2023-05-10T08:36:30;0.70;;;0.70;;
3922;SDS011;1976;51.694;6.256;2023-05-10T08:38:57;0.93;;;0.90;;
3922;SDS011;1976;51.694;6.256;2023-05-10T08:41:23;0.70;;;0.70;;
3922;SDS011;1976;51.694;6.256;2023-05-10T08:43:51;2.00;;;0.80;;
3922;SDS011;1976;51.694;6.256;2023-05-10T08:46:18;0.60;;;0.60;;
3922;SDS011;1976;51.694;6.256;2023-05-10T08:48:46;0.60;;;0.60;;
3922;SDS011;1976;51.694;6.256;2023-05-10T08:51:14;0.60;;;0.60;;
3922;SDS011;1976;51.694;6.256;2023-05-10T08:53:42;0.60;;;0.60;;
3922;SDS011;1976;51.694;6.256;2023-05-10T08:56:09;0.60;;;0.60;;
3922;SDS011;1976;51.694;6.256;2023-05-10T08:58:35;0.60;;;0.60;;
3922;SDS011;1976;51.694;6.256;2023-05-10T09:01:02;0.60;;;0.60;;
3922;SDS011;1976;51.694;6.256;2023-05-10T09:03:29;1.50;;;1.40;;
3922;SDS011;1976;51.694;6.256;2023-05-10T09:05:55;0.80;;;0.80;;
3922;SDS011;1976;51.694;6.256;2023-05-10T09:08:22;0.70;;;0.70;;
3922;SDS011;1976;51.694;6.256;2023-05-10T09:10:52;0.60;;;0.60;;
3922;SDS011;1976;51.694;6.256;2023-05-10T09:13:19;0.60;;;0.60;;
3922;SDS011;1976;51.694;6.256;2023-05-10T09:15:46;0.60;;;0.60;;
3922;SDS011;1976;51.694;6.256;2023-05-10T09:18:13;0.60;;;0.60;;
3922;SDS011;1976;51.694;6.256;2023-05-10T09:20:39;0.80;;;0.80;;
3922;SDS011;1976;51.694;6.256;2023-05-10T09:23:05;0.90;;;0.90;;
3922;SDS011;1976;51.694;6.256;2023-05-10T09:25:30;0.60;;;0.60;;
3922;SDS011;1976;51.694;6.256;2023-05-10T09:27:58;0.60;;;0.60;;
3922;SDS011;1976;51.694;6.256;2023-05-10T09:30:25;0.80;;;0.80;;
3922;SDS011;1976;51.694;6.256;2023-05-10T09:32:52;0.80;;;0.80;;
3922;SDS011;1976;51.694;6.256;2023-05-10T09:35:20;0.70;;;0.70;;
3922;SDS011;1976;51.694;6.256;2023-05-10T09:37:47;0.60;;;0.60;;
3922;SDS011;1976;51.694;6.256;2023-05-10T09:40:15;0.60;;;0.60;;
3922;SDS011;1976;51.694;6.256;2023-05-10T09:42:42;0.60;;;0.60;;
3922;SDS011;1976;51.694;6.256;2023-05-10T09:45:21;0.60;;;0.60;;
3922;SDS011;1976;51.694;6.256;2023-05-10T09:47:47;0.60;;;0.60;;
3922;SDS011;1976;51.694;6.256;2023-05-10T09:50:13;0.63;;;0.63;;
3922;SDS011;1976;51.694;6.256;2023-05-10T09:52:46;0.70;;;0.70;;
3922;SDS011;1976;51.694;6.256;2023-05-10T09:55:12;0.60;;;0.60;;
3922;SDS011;1976;51.694;6.256;2023-05-10T09:57:37;0.60;;;0.60;;
3922;SDS011;1976;51.694;6.256;2023-05-10T10:00:04;0.80;;;0.80;;
3922;SDS011;1976;51.694;6.256;2023-05-10T10:02:31;0.60;;;0.60;;
3922;SDS011;1976;51.694;6.256;2023-05-10T10:05:00;0.60;;;0.60;;
3922;SDS011;1976;51.694;6.256;2023-05-10T10:07:27;0.60;;;0.60;;
3922;SDS011;1976;51.694;6.256;2023-05-10T10:09:54;2.43;;;1.97;;
3922;SDS011;1976;51.694;6.256;2023-05-10T10:12:20;3.63;;;1.17;;
3922;SDS011;1976;51.694;6.256;2023-05-10T10:14:46;0.60;;;0.60;;
3922;SDS011;1976;51.694;6.256;2023-05-10T10:17:13;0.60;;;0.60;;
3922;SDS011;1976;51.694;6.256;2023-05-10T10:19:39;0.93;;;0.83;;
3922;SDS011;1976;51.694;6.256;2023-05-10T10:22:06;0.60;;;0.60;;
3922;SDS011;1976;51.694;6.256;2023-05-10T10:24:32;0.80;;;0.80;;
3922;SDS011;1976;51.694;6.256;2023-05-10T10:27:04;0.60;;;0.60;;
3922;SDS011;1976;51.694;6.256;2023-05-10T10:29:52;1.20;;;1.10;;
3922;SDS011;1976;51.694;6.256;2023-05-10T10:32:33;0.60;;;0.60;;
3922;SDS011;1976;51.694;6.256;2023-05-10T10:35:13;10.10;;;2.90;;
3922;SDS011;1976;51.694;6.256;2023-05-10T10:37:47;1.13;;;0.90;;
3922;SDS011;1976;51.694;6.256;2023-05-10T10:42:57;0.60;;;0.60;;
3922;SDS011;1976;51.694;6.256;2023-05-10T10:45:23;0.60;;;0.60;;
3922;SDS011;1976;51.694;6.256;2023-05-10T10:50:55;31.87;;;16.67;;
3922;SDS011;1976;51.694;6.256;2023-05-10T10:53:22;17.43;;;9.93;;
3922;SDS011;1976;51.694;6.256;2023-05-10T10:55:51;26.53;;;16.33;;
3922;SDS011;1976;51.694;6.256;2023-05-10T10:58:32;33.67;;;18.90;;
3922;SDS011;1976;51.694;6.256;2023-05-10T11:01:09;27.47;;;18.07;;
3922;SDS011;1976;51.694;6.256;2023-05-10T11:03:40;29.07;;;17.97;;
3922;SDS011;1976;51.694;6.256;2023-05-10T11:06:06;40.13;;;20.10;;
3922;SDS011;1976;51.694;6.256;2023-05-10T11:08:34;27.50;;;17.70;;
3922;SDS011;1976;51.694;6.256;2023-05-10T11:11:07;27.10;;;18.50;;
3922;SDS011;1976;51.694;6.256;2023-05-10T11:13:46;26.47;;;16.23;;
3922;SDS011;1976;51.694;6.256;2023-05-10T11:16:24;24.17;;;14.63;;
3922;SDS011;1976;51.694;6.256;2023-05-10T11:19:12;28.30;;;15.90;;
3922;SDS011;1976;51.694;6.256;2023-05-10T11:22:23;22.10;;;13.77;;
3922;SDS011;1976;51.694;6.256;2023-05-10T11:24:30;25.33;;;13.97;;
3922;SDS011;1976;51.694;6.256;2023-05-10T11:26:56;28.27;;;15.63;;
3922;SDS011;1976;51.694;6.256;2023-05-10T11:29:22;29.17;;;14.60;;
3922;SDS011;1976;51.694;6.256;2023-05-10T11:31:48;20.67;;;13.07;;
3922;SDS011;1976;51.694;6.256;2023-05-10T11:36:54;19.00;;;10.00;;
3922;SDS011;1976;51.694;6.256;2023-05-10T11:39:21;18.40;;;11.80;;
3922;SDS011;1976;51.694;6.256;2023-05-10T11:41:50;22.77;;;13.23;;
3922;SDS011;1976;51.694;6.256;2023-05-10T11:44:16;22.00;;;12.80;;
3922;SDS011;1976;51.694;6.256;2023-05-10T11:46:42;26.47;;;13.23;;
3922;SDS011;1976;51.694;6.256;2023-05-10T11:49:07;19.70;;;12.00;;
3922;SDS011;1976;51.694;6.256;2023-05-10T11:51:34;15.73;;;11.20;;
3922;SDS011;1976;51.694;6.256;2023-05-10T11:54:07;20.90;;;12.73;;
3922;SDS011;1976;51.694;6.256;2023-05-10T11:56:34;19.73;;;12.00;;
3922;SDS011;1976;51.694;6.256;2023-05-10T11:59:00;19.90;;;11.97;;
3922;SDS011;1976;51.694;6.256;2023-05-10T12:01:27;19.50;;;12.70;;
3922;SDS011;1976;51.694;6.256;2023-05-10T12:03:54;20.97;;;13.50;;
3922;SDS011;1976;51.694;6.256;2023-05-10T12:06:31;20.40;;;13.77;;
3922;SDS011;1976;51.694;6.256;2023-05-10T12:09:05;21.93;;;14.20;;
3922;SDS011;1976;51.694;6.256;2023-05-10T12:11:31;17.23;;;13.00;;
3922;SDS011;1976;51.694;6.256;2023-05-10T12:13:57;26.13;;;15.13;;
3922;SDS011;1976;51.694;6.256;2023-05-10T12:16:24;21.43;;;13.70;;
3922;SDS011;1976;51.694;6.256;2023-05-10T12:18:51;19.77;;;10.93;;
3922;SDS011;1976;51.694;6.256;2023-05-10T12:21:19;18.37;;;12.40;;
3922;SDS011;1976;51.694;6.256;2023-05-10T12:23:46;19.97;;;11.63;;
3922;SDS011;1976;51.694;6.256;2023-05-10T12:26:14;20.57;;;13.33;;
3922;SDS011;1976;51.694;6.256;2023-05-10T12:28:40;23.10;;;12.70;;
3922;SDS011;1976;51.694;6.256;2023-05-10T12:31:06;21.70;;;11.97;;
3922;SDS011;1976;51.694;6.256;2023-05-10T12:33:36;15.10;;;10.33;;
3922;SDS011;1976;51.694;6.256;2023-05-10T12:36:09;17.20;;;12.00;;
3922;SDS011;1976;51.694;6.256;2023-05-10T12:38:39;15.53;;;10.73;;
3922;SDS011;1976;51.694;6.256;2023-05-10T12:41:11;19.27;;;10.60;;
3922;SDS011;1976;51.694;6.256;2023-05-10T12:43:38;19.27;;;11.07;;
3922;SDS011;1976;51.694;6.256;2023-05-10T12:46:05;17.67;;;12.20;;
3922;SDS011;1976;51.694;6.256;2023-05-10T12:48:31;20.53;;;11.50;;
3922;SDS011;1976;51.694;6.256;2023-05-10T12:50:58;15.83;;;10.50;;
3922;SDS011;1976;51.694;6.256;2023-05-10T12:53:24;15.90;;;10.60;;
3922;SDS011;1976;51.694;6.256;2023-05-10T12:55:50;12.13;;;8.90;;
3922;SDS011;1976;51.694;6.256;2023-05-10T12:58:16;15.50;;;10.00;;
3922;SDS011;1976;51.694;6.256;2023-05-10T13:00:42;15.97;;;9.87;;
3922;SDS011;1976;51.694;6.256;2023-05-10T13:03:08;12.17;;;8.47;;
3922;SDS011;1976;51.694;6.256;2023-05-10T13:05:35;13.53;;;8.50;;
3922;SDS011;1976;51.694;6.256;2023-05-10T13:08:01;13.43;;;9.30;;
3922;SDS011;1976;51.694;6.256;2023-05-10T13:10:28;14.40;;;8.70;;
3922;SDS011;1976;51.694;6.256;2023-05-10T13:12:55;11.77;;;9.20;;
3922;SDS011;1976;51.694;6.256;2023-05-10T13:15:21;12.83;;;9.73;;
3922;SDS011;1976;51.694;6.256;2023-05-10T13:17:47;11.93;;;8.50;;
3922;SDS011;1976;51.694;6.256;2023-05-10T13:20:13;18.03;;;9.63;;
3922;SDS011;1976;51.694;6.256;2023-05-10T13:22:40;14.70;;;10.80;;
3922;SDS011;1976;51.694;6.256;2023-05-10T13:25:06;21.50;;;8.97;;
3922;SDS011;1976;51.694;6.256;2023-05-10T13:27:32;10.83;;;7.90;;
3922;SDS011;1976;51.694;6.256;2023-05-10T13:29:58;12.03;;;8.50;;
3922;SDS011;1976;51.694;6.256;2023-05-10T13:32:24;10.00;;;8.07;;
3922;SDS011;1976;51.694;6.256;2023-05-10T13:34:50;15.00;;;8.73;;
3922;SDS011;1976;51.694;6.256;2023-05-10T13:37:16;10.93;;;7.60;;
3922;SDS011;1976;51.694;6.256;2023-05-10T13:39:42;9.70;;;7.17;;
3922;SDS011;1976;51.694;6.256;2023-05-10T13:42:08;11.93;;;6.77;;
3922;SDS011;1976;51.694;6.256;2023-05-10T13:44:34;15.43;;;7.53;;
3922;SDS011;1976;51.694;6.256;2023-05-10T13:47:00;16.03;;;8.60;;
3922;SDS011;1976;51.694;6.256;2023-05-10T13:49:26;15.57;;;9.37;;
3922;SDS011;1976;51.694;6.256;2023-05-10T13:51:52;15.63;;;9.40;;
3922;SDS011;1976;51.694;6.256;2023-05-10T13:54:17;12.80;;;7.90;;
3922;SDS011;1976;51.694;6.256;2023-05-10T13:56:47;19.23;;;10.70;;
3922;SDS011;1976;51.694;6.256;2023-05-10T13:59:13;12.47;;;10.10;;
3922;SDS011;1976;51.694;6.256;2023-05-10T14:01:40;12.13;;;9.20;;
3922;SDS011;1976;51.694;6.256;2023-05-10T14:04:06;19.30;;;10.13;;
3922;SDS011;1976;51.694;6.256;2023-05-10T14:06:35;8.80;;;6.97;;
3922;SDS011;1976;51.694;6.256;2023-05-10T14:09:01;13.70;;;9.47;;
3922;SDS011;1976;51.694;6.256;2023-05-10T14:11:27;12.40;;;8.43;;
3922;SDS011;1976;51.694;6.256;2023-05-10T14:13:53;14.83;;;10.67;;
3922;SDS011;1976;51.694;6.256;2023-05-10T14:16:18;40.27;;;11.90;;
3922;SDS011;1976;51.694;6.256;2023-05-10T14:18:45;16.90;;;12.30;;
3922;SDS011;1976;51.694;6.256;2023-05-10T14:21:11;19.13;;;14.40;;
3922;SDS011;1976;51.694;6.256;2023-05-10T14:23:36;24.60;;;15.13;;
3922;SDS011;1976;51.694;6.256;2023-05-10T14:26:02;24.63;;;14.53;;
3922;SDS011;1976;51.694;6.256;2023-05-10T14:28:28;22.33;;;11.80;;
3922;SDS011;1976;51.694;6.256;2023-05-10T14:30:53;19.03;;;12.43;;
3922;SDS011;1976;51.694;6.256;2023-05-10T14:33:19;23.90;;;11.17;;
3922;SDS011;1976;51.694;6.256;2023-05-10T14:35:45;0.60;;;0.60;;
3922;SDS011;1976;51.694;6.256;2023-05-10T14:38:12;0.70;;;0.70;;
3922;SDS011;1976;51.694;6.256;2023-05-10T14:40:38;0.60;;;0.60;;
3922;SDS011;1976;51.694;6.256;2023-05-10T14:43:04;0.70;;;0.70;;
3922;SDS011;1976;51.694;6.256;2023-05-10T14:45:30;0.70;;;0.70;;
3922;SDS011;1976;51.694;6.256;2023-05-10T14:47:56;0.60;;;0.60;;
3922;SDS011;1976;51.694;6.256;2023-05-10T14:50:22;0.60;;;0.60;;
3922;SDS011;1976;51.694;6.256;2023-05-10T14:52:48;0.60;;;0.60;;
3922;SDS011;1976;51.694;6.256;2023-05-10T14:55:14;0.80;;;0.80;;
3922;SDS011;1976;51.694;6.256;2023-05-10T14:57:40;0.70;;;0.70;;
3922;SDS011;1976;51.694;6.256;2023-05-10T15:00:06;0.60;;;0.60;;
3922;SDS011;1976;51.694;6.256;2023-05-10T15:02:32;0.70;;;0.70;;
3922;SDS011;1976;51.694;6.256;2023-05-10T15:04:58;0.67;;;0.67;;
3922;SDS011;1976;51.694;6.256;2023-05-10T15:07:24;0.60;;;0.60;;
3922;SDS011;1976;51.694;6.256;2023-05-10T15:09:50;0.70;;;0.70;;
3922;SDS011;1976;51.694;6.256;2023-05-10T15:12:17;0.90;;;0.90;;
3922;SDS011;1976;51.694;6.256;2023-05-10T15:14:43;0.73;;;0.73;;
3922;SDS011;1976;51.694;6.256;2023-05-10T15:17:09;0.60;;;0.60;;
3922;SDS011;1976;51.694;6.256;2023-05-10T15:19:35;0.60;;;0.60;;
3922;SDS011;1976;51.694;6.256;2023-05-10T15:22:01;0.90;;;0.90;;
3922;SDS011;1976;51.694;6.256;2023-05-10T15:24:27;0.60;;;0.60;;
3922;SDS011;1976;51.694;6.256;2023-05-10T15:26:53;0.60;;;0.60;;
3922;SDS011;1976;51.694;6.256;2023-05-10T15:29:19;0.70;;;0.70;;
3922;SDS011;1976;51.694;6.256;2023-05-10T15:31:46;0.70;;;0.70;;
3922;SDS011;1976;51.694;6.256;2023-05-10T15:34:13;0.60;;;0.60;;
3922;SDS011;1976;51.694;6.256;2023-05-10T15:36:39;0.77;;;0.77;;
3922;SDS011;1976;51.694;6.256;2023-05-10T15:39:05;0.60;;;0.60;;
3922;SDS011;1976;51.694;6.256;2023-05-10T15:41:30;0.60;;;0.60;;
3922;SDS011;1976;51.694;6.256;2023-05-10T15:43:56;0.60;;;0.60;;
3922;SDS011;1976;51.694;6.256;2023-05-10T15:46:24;0.70;;;0.70;;
3922;SDS011;1976;51.694;6.256;2023-05-10T15:48:51;0.60;;;0.60;;